Time,TemperatureF,DewpointF,PressureIn,WindDirection,WindDirectionDegrees,WindSpeedMPH,WindSpeedGustMPH,Humidity,HourlyPrecipIn,Conditions,Clouds,dailyrainin,SolarRadiationWatts/m^2,SoftwareType,DateUTC
2013-07-22 00:11:00,70.0,70.0,-100.00,SE,146,1.0,4.0,99,0.26,,,0.55,0.000000,,2013-07-22 05:11:00,
2013-07-22 00:22:00,70.0,70.0,-100.00,SE,146,1.0,4.0,99,0.26,,,0.55,0.000000,,2013-07-22 05:22:00,
2013-07-22 00:32:00,70.0,70.0,-100.00,SE,146,1.0,4.0,99,0.26,,,0.55,0.000000,,2013-07-22 05:32:00,
2013-07-22 00:43:00,70.0,70.0,-100.00,SE,146,1.0,4.0,99,0.26,,,0.55,0.000000,,2013-07-22 05:43:00,
2013-07-22 01:11:00,70.0,70.0,-100.00,NW,313,1.0,3.0,99,0.06,,,0.61,0.000000,,2013-07-22 06:11:00,
2013-07-22 01:22:00,70.0,70.0,-100.00,NW,313,1.0,3.0,99,0.06,,,0.61,0.000000,,2013-07-22 06:22:00,
2013-07-22 01:33:00,70.0,70.0,-100.00,NW,313,1.0,3.0,99,0.06,,,0.61,0.000000,,2013-07-22 06:33:00,
2013-07-22 01:43:00,70.0,70.0,-100.00,NW,313,1.0,3.0,99,0.06,,,0.61,0.000000,,2013-07-22 06:43:00,
2013-07-22 02:12:00,69.0,69.0,-100.00,SSW,197,2.0,4.0,99,0.00,,,-99.99,0.000000,,2013-07-22 07:12:00,
2013-07-22 02:22:00,69.0,69.0,-100.00,SSW,197,2.0,4.0,99,0.00,,,-99.99,0.000000,,2013-07-22 07:22:00,
2013-07-22 02:33:00,69.0,69.0,-100.00,SSW,197,2.0,4.0,99,0.00,,,-99.99,0.000000,,2013-07-22 07:33:00,
2013-07-22 02:43:00,69.0,69.0,-100.00,SSW,197,2.0,4.0,99,0.00,,,-99.99,0.000000,,2013-07-22 07:43:00,
2013-07-22 03:11:00,69.0,69.0,-100.00,SSE,163,2.0,3.0,99,0.00,,,0.61,0.000000,,2013-07-22 08:11:00,
2013-07-22 03:22:00,69.0,69.0,-100.00,SSE,163,2.0,3.0,99,0.00,,,0.61,0.000000,,2013-07-22 08:22:00,
2013-07-22 03:32:00,69.0,69.0,-100.00,SSE,163,2.0,3.0,99,0.00,,,0.61,0.000000,,2013-07-22 08:32:00,
2013-07-22 03:43:00,69.0,69.0,-100.00,SSE,163,2.0,3.0,99,0.00,,,0.61,0.000000,,2013-07-22 08:43:00,
2013-07-22 15:22:00,80.0,78.0,-100.00,South,179,2.0,6.0,94,-99.99,,,-99.99,441.000000,,2013-07-22 20:22:00,
2013-07-22 15:32:00,80.0,78.0,-100.00,South,179,2.0,6.0,94,-99.99,,,-99.99,441.000000,,2013-07-22 20:32:00,
2013-07-22 15:43:00,80.0,78.0,-100.00,South,179,2.0,6.0,94,-99.99,,,-99.99,441.000000,,2013-07-22 20:43:00,
2013-07-22 16:22:00,80.0,73.0,-100.00,SSW,209,3.0,8.0,80,0.00,,,1.07,376.000000,,2013-07-22 21:22:00,
2013-07-22 16:32:00,80.0,73.0,-100.00,SSW,209,3.0,8.0,80,0.00,,,1.07,376.000000,,2013-07-22 21:32:00,
2013-07-22 16:43:00,80.0,73.0,-100.00,SSW,209,3.0,8.0,80,0.00,,,1.07,376.000000,,2013-07-22 21:43:00,
2013-07-22 17:11:00,80.0,73.0,-100.00,NW,316,3.0,7.0,78,0.00,,,1.07,154.000000,,2013-07-22 22:11:00,
2013-07-22 17:22:00,80.0,73.0,-100.00,NW,316,3.0,7.0,78,0.00,,,1.07,154.000000,,2013-07-22 22:22:00,
2013-07-22 17:32:00,80.0,73.0,-100.00,NW,316,3.0,7.0,78,0.00,,,1.07,154.000000,,2013-07-22 22:32:00,
2013-07-22 17:43:00,80.0,73.0,-100.00,NW,316,3.0,7.0,78,0.00,,,1.07,154.000000,,2013-07-22 22:43:00,
2013-07-22 18:11:00,79.0,73.0,-100.00,NW,325,2.0,8.0,81,0.00,,,1.07,85.000000,,2013-07-22 23:11:00,
2013-07-22 18:22:00,79.0,73.0,-100.00,NW,325,2.0,8.0,81,0.00,,,1.07,85.000000,,2013-07-22 23:22:00,
2013-07-22 18:32:00,79.0,73.0,-100.00,NW,325,2.0,8.0,81,0.00,,,1.07,85.000000,,2013-07-22 23:32:00,
2013-07-22 18:43:00,79.0,73.0,-100.00,NW,325,2.0,8.0,81,0.00,,,1.07,85.000000,,2013-07-22 23:43:00,
2013-07-22 19:12:00,78.0,71.0,-100.00,WSW,255,2.0,6.0,78,0.00,,,1.07,63.000000,,2013-07-23 00:12:00,
2013-07-22 19:22:00,78.0,71.0,-100.00,WSW,255,2.0,6.0,78,0.00,,,1.07,63.000000,,2013-07-23 00:22:00,
2013-07-22 19:32:00,78.0,71.0,-100.00,WSW,255,2.0,6.0,78,0.00,,,1.07,63.000000,,2013-07-23 00:32:00,
2013-07-22 19:43:00,78.0,71.0,-100.00,WSW,255,2.0,6.0,78,0.00,,,1.07,63.000000,,2013-07-23 00:43:00,
2013-07-22 20:22:00,75.0,70.0,-100.00,East,94,0.0,5.0,85,0.00,,,1.07,16.000000,,2013-07-23 01:22:00,
2013-07-22 20:32:00,75.0,70.0,-100.00,East,94,0.0,5.0,85,0.00,,,1.07,16.000000,,2013-07-23 01:32:00,
2013-07-22 20:43:00,75.0,70.0,-100.00,East,94,0.0,5.0,85,0.00,,,1.07,16.000000,,2013-07-23 01:43:00,
2013-07-22 21:11:00,73.0,71.0,-100.00,WSW,237,0.0,1.0,93,0.00,,,-99.99,1.000000,,2013-07-23 02:11:00,
2013-07-22 21:22:00,73.0,71.0,-100.00,WSW,237,0.0,1.0,93,0.00,,,-99.99,1.000000,,2013-07-23 02:22:00,
2013-07-22 21:33:00,73.0,71.0,-100.00,WSW,237,0.0,1.0,93,0.00,,,-99.99,1.000000,,2013-07-23 02:33:00,
2013-07-22 21:43:00,73.0,71.0,-100.00,WSW,237,0.0,1.0,93,0.00,,,-99.99,1.000000,,2013-07-23 02:43:00,
2013-07-22 22:22:00,71.0,70.0,-100.00,South,173,0.0,2.0,97,0.00,,,-99.99,0.000000,,2013-07-23 03:22:00,
2013-07-22 22:33:00,71.0,70.0,-100.00,South,173,0.0,2.0,97,0.00,,,-99.99,0.000000,,2013-07-23 03:33:00,
2013-07-22 22:43:00,71.0,70.0,-100.00,South,173,0.0,2.0,97,0.00,,,-99.99,0.000000,,2013-07-23 03:43:00,
2013-07-22 23:22:00,70.0,69.0,-100.00,WNW,288,1.0,2.0,98,0.00,,,0.79,0.000000,,2013-07-23 04:22:00,
2013-07-22 23:32:00,70.0,69.0,-100.00,WNW,288,1.0,2.0,98,0.00,,,0.79,0.000000,,2013-07-23 04:32:00,
2013-07-22 23:43:00,70.0,69.0,-100.00,WNW,288,1.0,2.0,98,0.00,,,0.79,0.000000,,2013-07-23 04:43:00,